This is the latest recevied weather packets stored in our database for station/object I1SXT-13. If no packets are shown the sender has not sent any weather packets the latest 10 day(s).
| Time | Temp. | Humidity | Pressure | Rain* | Wind** | Luminosity | Snow |
|---|---|---|---|---|---|---|---|
| 1777757064 | 13.89° C | 61% | 1023.1 hPa | 0 mm | - | - | - |
| 1777756767 | 13.89° C | 60% | 1023.7 hPa | 0 mm | - | - | - |
| 1777756470 | 13.89° C | 61% | 1022.6 hPa | 0 mm | - | - | - |
| 1777756166 | 13.89° C | 61% | 1022.8 hPa | 0 mm | - | - | - |
| 1777755869 | 13.33° C | 64% | 1022.7 hPa | 0 mm | - | - | - |
| 1777755565 | 12.78° C | 66% | 1022.9 hPa | 0 mm | - | - | - |
| 1777755268 | 12.78° C | 67% | 1023.3 hPa | 0 mm | - | - | - |
| 1777754666 | 13.33° C | 66% | 1023.7 hPa | 0 mm | - | - | - |
| 1777754369 | 13.33° C | 66% | 1023.9 hPa | 0 mm | - | - | - |
| 1777754065 | 13.33° C | 65% | 1023.2 hPa | 0 mm | - | - | - |
| 1777753768 | 13.89° C | 64% | 1022.8 hPa | 0 mm | - | - | - |
| 1777753465 | 13.89° C | 64% | 1023.1 hPa | 0 mm | - | - | - |
| 1777753167 | 13.89° C | 63% | 1023.5 hPa | 0 mm | - | - | - |
| 1777752870 | 14.44° C | 61% | 1023 hPa | 0 mm | - | - | - |
| 1777752566 | 15° C | 61% | 1022.8 hPa | 0 mm | - | - | - |
| 1777752269 | 15° C | 57% | 1023 hPa | 0 mm | - | - | - |
| 1777751965 | 15° C | 57% | 1022.6 hPa | 0 mm | - | - | - |
| 1777751668 | 15° C | 57% | 1022.4 hPa | 0 mm | - | - | - |
| 1777751364 | 15° C | 59% | 1023.2 hPa | 0 mm | - | - | - |
| 1777751067 | 15° C | 60% | 1023 hPa | 0 mm | - | - | - |
| 1777750466 | 15° C | 61% | 1022.9 hPa | 0 mm | - | - | - |
| 1777750168 | 15° C | 62% | 1022.6 hPa | 0 mm | - | - | - |
| 1777749567 | 15° C | 63% | 1023.5 hPa | 0 mm | - | - | - |
| 1777749263 | 15.56° C | 62% | 1022.9 hPa | 0 mm | - | - | - |
| 1777748966 | 15° C | 62% | 1023 hPa | 0 mm | - | - | - |
* Rain since midnight (hover to see other rain measurements)
** Current wind speed in m/s (hover to see current wind gust speed)